sensor_id;sensor_type;location;lat;lon;timestamp;P1;durP1;ratioP1;P2;durP2;ratioP2
19183;SDS011;9724;51.194;6.856;2023-07-02T00:01:46;6.20;;;3.10;;
19183;SDS011;9724;51.194;6.856;2023-07-02T00:04:12;8.20;;;2.83;;
19183;SDS011;9724;51.194;6.856;2023-07-02T00:06:41;9.20;;;2.90;;
19183;SDS011;9724;51.194;6.856;2023-07-02T00:09:08;8.50;;;3.20;;
19183;SDS011;9724;51.194;6.856;2023-07-02T00:11:36;5.60;;;2.60;;
19183;SDS011;9724;51.194;6.856;2023-07-02T00:14:03;8.50;;;3.40;;
19183;SDS011;9724;51.194;6.856;2023-07-02T00:16:30;6.50;;;2.80;;
19183;SDS011;9724;51.194;6.856;2023-07-02T00:18:56;4.80;;;2.80;;
19183;SDS011;9724;51.194;6.856;2023-07-02T00:21:22;8.53;;;2.90;;
19183;SDS011;9724;51.194;6.856;2023-07-02T00:23:53;5.00;;;2.77;;
19183;SDS011;9724;51.194;6.856;2023-07-02T00:26:20;5.97;;;2.97;;
19183;SDS011;9724;51.194;6.856;2023-07-02T00:28:46;8.50;;;2.77;;
19183;SDS011;9724;51.194;6.856;2023-07-02T00:31:12;5.87;;;2.90;;
19183;SDS011;9724;51.194;6.856;2023-07-02T00:33:39;7.13;;;3.27;;
19183;SDS011;9724;51.194;6.856;2023-07-02T00:36:05;11.83;;;3.60;;
19183;SDS011;9724;51.194;6.856;2023-07-02T00:38:32;5.30;;;2.87;;
19183;SDS011;9724;51.194;6.856;2023-07-02T00:40:58;15.20;;;3.43;;
19183;SDS011;9724;51.194;6.856;2023-07-02T00:43:25;11.93;;;3.40;;
19183;SDS011;9724;51.194;6.856;2023-07-02T00:45:51;9.43;;;3.63;;
19183;SDS011;9724;51.194;6.856;2023-07-02T00:48:17;6.87;;;3.63;;
19183;SDS011;9724;51.194;6.856;2023-07-02T00:50:44;7.47;;;3.60;;
19183;SDS011;9724;51.194;6.856;2023-07-02T00:53:11;8.10;;;3.53;;
19183;SDS011;9724;51.194;6.856;2023-07-02T00:55:37;11.43;;;3.87;;
19183;SDS011;9724;51.194;6.856;2023-07-02T00:58:03;7.43;;;3.77;;
19183;SDS011;9724;51.194;6.856;2023-07-02T01:00:30;10.17;;;4.17;;
19183;SDS011;9724;51.194;6.856;2023-07-02T01:02:56;8.00;;;4.30;;
19183;SDS011;9724;51.194;6.856;2023-07-02T01:05:25;10.03;;;4.53;;
19183;SDS011;9724;51.194;6.856;2023-07-02T01:07:52;14.13;;;4.63;;
19183;SDS011;9724;51.194;6.856;2023-07-02T01:10:19;12.47;;;4.60;;
19183;SDS011;9724;51.194;6.856;2023-07-02T01:12:45;15.33;;;5.07;;
19183;SDS011;9724;51.194;6.856;2023-07-02T01:15:12;13.43;;;4.73;;
19183;SDS011;9724;51.194;6.856;2023-07-02T01:17:38;12.53;;;5.33;;
19183;SDS011;9724;51.194;6.856;2023-07-02T01:20:08;14.40;;;5.63;;
19183;SDS011;9724;51.194;6.856;2023-07-02T01:22:35;20.07;;;5.57;;
19183;SDS011;9724;51.194;6.856;2023-07-02T01:25:02;18.03;;;5.77;;
19183;SDS011;9724;51.194;6.856;2023-07-02T01:27:29;13.50;;;5.90;;
19183;SDS011;9724;51.194;6.856;2023-07-02T01:29:55;13.73;;;5.73;;
19183;SDS011;9724;51.194;6.856;2023-07-02T01:32:22;21.30;;;6.03;;
19183;SDS011;9724;51.194;6.856;2023-07-02T01:34:48;12.57;;;5.83;;
19183;SDS011;9724;51.194;6.856;2023-07-02T01:37:16;21.07;;;6.37;;
19183;SDS011;9724;51.194;6.856;2023-07-02T01:39:43;15.57;;;6.07;;
19183;SDS011;9724;51.194;6.856;2023-07-02T01:42:10;14.37;;;7.00;;
19183;SDS011;9724;51.194;6.856;2023-07-02T01:44:38;13.07;;;6.00;;
19183;SDS011;9724;51.194;6.856;2023-07-02T01:47:04;16.57;;;6.63;;
19183;SDS011;9724;51.194;6.856;2023-07-02T01:49:31;13.10;;;6.40;;
19183;SDS011;9724;51.194;6.856;2023-07-02T01:51:57;19.07;;;6.50;;
19183;SDS011;9724;51.194;6.856;2023-07-02T01:54:25;22.60;;;7.03;;
19183;SDS011;9724;51.194;6.856;2023-07-02T01:56:52;13.83;;;7.20;;
19183;SDS011;9724;51.194;6.856;2023-07-02T01:59:18;14.87;;;7.23;;
19183;SDS011;9724;51.194;6.856;2023-07-02T02:01:45;16.77;;;7.40;;
19183;SDS011;9724;51.194;6.856;2023-07-02T02:04:11;15.23;;;7.50;;
19183;SDS011;9724;51.194;6.856;2023-07-02T02:06:38;17.50;;;7.40;;
19183;SDS011;9724;51.194;6.856;2023-07-02T02:09:05;20.53;;;8.33;;
19183;SDS011;9724;51.194;6.856;2023-07-02T02:11:33;15.90;;;8.17;;
19183;SDS011;9724;51.194;6.856;2023-07-02T02:14:00;18.53;;;8.50;;
19183;SDS011;9724;51.194;6.856;2023-07-02T02:16:27;20.80;;;7.97;;
19183;SDS011;9724;51.194;6.856;2023-07-02T02:18:55;17.00;;;8.07;;
19183;SDS011;9724;51.194;6.856;2023-07-02T02:21:21;19.53;;;8.00;;
19183;SDS011;9724;51.194;6.856;2023-07-02T02:23:48;18.83;;;8.47;;
19183;SDS011;9724;51.194;6.856;2023-07-02T02:26:15;29.90;;;8.70;;
19183;SDS011;9724;51.194;6.856;2023-07-02T02:28:42;21.43;;;8.50;;
19183;SDS011;9724;51.194;6.856;2023-07-02T02:31:08;22.90;;;9.10;;
19183;SDS011;9724;51.194;6.856;2023-07-02T02:33:35;22.07;;;9.00;;
19183;SDS011;9724;51.194;6.856;2023-07-02T02:36:01;25.33;;;9.93;;
19183;SDS011;9724;51.194;6.856;2023-07-02T02:38:27;19.97;;;9.17;;
19183;SDS011;9724;51.194;6.856;2023-07-02T02:40:54;27.57;;;9.80;;
19183;SDS011;9724;51.194;6.856;2023-07-02T02:43:20;28.67;;;10.97;;
19183;SDS011;9724;51.194;6.856;2023-07-02T02:45:48;24.13;;;10.17;;
19183;SDS011;9724;51.194;6.856;2023-07-02T02:48:15;26.10;;;10.13;;
19183;SDS011;9724;51.194;6.856;2023-07-02T02:50:41;25.80;;;8.97;;
19183;SDS011;9724;51.194;6.856;2023-07-02T02:53:08;28.67;;;10.37;;
19183;SDS011;9724;51.194;6.856;2023-07-02T02:55:35;25.90;;;10.40;;
19183;SDS011;9724;51.194;6.856;2023-07-02T02:58:01;24.00;;;10.13;;
19183;SDS011;9724;51.194;6.856;2023-07-02T03:00:28;28.60;;;10.67;;
19183;SDS011;9724;51.194;6.856;2023-07-02T03:02:55;30.20;;;11.10;;
19183;SDS011;9724;51.194;6.856;2023-07-02T03:05:21;29.13;;;10.60;;
19183;SDS011;9724;51.194;6.856;2023-07-02T03:07:48;29.97;;;11.80;;
19183;SDS011;9724;51.194;6.856;2023-07-02T03:10:16;24.03;;;10.63;;
19183;SDS011;9724;51.194;6.856;2023-07-02T03:12:43;27.33;;;11.43;;
19183;SDS011;9724;51.194;6.856;2023-07-02T03:15:09;27.57;;;11.30;;
19183;SDS011;9724;51.194;6.856;2023-07-02T03:17:36;27.10;;;10.93;;
19183;SDS011;9724;51.194;6.856;2023-07-02T03:20:03;28.53;;;11.60;;
19183;SDS011;9724;51.194;6.856;2023-07-02T03:22:30;26.07;;;11.63;;
19183;SDS011;9724;51.194;6.856;2023-07-02T03:24:57;32.17;;;12.77;;
19183;SDS011;9724;51.194;6.856;2023-07-02T03:27:23;31.77;;;11.63;;
19183;SDS011;9724;51.194;6.856;2023-07-02T03:29:49;26.73;;;12.13;;
19183;SDS011;9724;51.194;6.856;2023-07-02T03:32:17;33.97;;;13.40;;
19183;SDS011;9724;51.194;6.856;2023-07-02T03:34:43;30.43;;;13.30;;
19183;SDS011;9724;51.194;6.856;2023-07-02T03:37:10;28.43;;;12.63;;
19183;SDS011;9724;51.194;6.856;2023-07-02T03:39:37;30.33;;;12.97;;
19183;SDS011;9724;51.194;6.856;2023-07-02T03:42:04;33.97;;;13.43;;
19183;SDS011;9724;51.194;6.856;2023-07-02T03:44:31;28.60;;;12.60;;
19183;SDS011;9724;51.194;6.856;2023-07-02T03:46:57;38.33;;;13.77;;
19183;SDS011;9724;51.194;6.856;2023-07-02T03:49:23;27.80;;;12.80;;
19183;SDS011;9724;51.194;6.856;2023-07-02T03:51:50;31.93;;;13.80;;
19183;SDS011;9724;51.194;6.856;2023-07-02T03:54:19;28.50;;;12.43;;
19183;SDS011;9724;51.194;6.856;2023-07-02T03:56:45;33.43;;;13.90;;
19183;SDS011;9724;51.194;6.856;2023-07-02T03:59:12;30.63;;;12.17;;
19183;SDS011;9724;51.194;6.856;2023-07-02T04:01:38;28.53;;;12.57;;
19183;SDS011;9724;51.194;6.856;2023-07-02T04:04:06;31.20;;;13.77;;
19183;SDS011;9724;51.194;6.856;2023-07-02T04:06:33;37.50;;;13.10;;
19183;SDS011;9724;51.194;6.856;2023-07-02T04:09:00;45.23;;;15.13;;
19183;SDS011;9724;51.194;6.856;2023-07-02T04:11:27;28.77;;;13.27;;
19183;SDS011;9724;51.194;6.856;2023-07-02T04:13:53;28.70;;;13.40;;
19183;SDS011;9724;51.194;6.856;2023-07-02T04:16:19;34.63;;;14.77;;
19183;SDS011;9724;51.194;6.856;2023-07-02T04:18:46;35.70;;;14.17;;
19183;SDS011;9724;51.194;6.856;2023-07-02T04:21:12;34.73;;;14.03;;
19183;SDS011;9724;51.194;6.856;2023-07-02T04:23:38;35.97;;;14.23;;
19183;SDS011;9724;51.194;6.856;2023-07-02T04:26:05;48.03;;;15.63;;
19183;SDS011;9724;51.194;6.856;2023-07-02T04:28:52;32.63;;;13.87;;
19183;SDS011;9724;51.194;6.856;2023-07-02T04:31:19;33.03;;;14.40;;
19183;SDS011;9724;51.194;6.856;2023-07-02T04:33:45;39.13;;;14.57;;
19183;SDS011;9724;51.194;6.856;2023-07-02T04:36:11;32.23;;;15.00;;
19183;SDS011;9724;51.194;6.856;2023-07-02T04:38:38;36.13;;;15.03;;
19183;SDS011;9724;51.194;6.856;2023-07-02T04:41:05;34.87;;;14.83;;
19183;SDS011;9724;51.194;6.856;2023-07-02T04:43:32;39.33;;;15.83;;
19183;SDS011;9724;51.194;6.856;2023-07-02T04:45:59;35.17;;;15.27;;
19183;SDS011;9724;51.194;6.856;2023-07-02T04:48:26;34.63;;;15.07;;
19183;SDS011;9724;51.194;6.856;2023-07-02T04:50:52;39.53;;;15.53;;
19183;SDS011;9724;51.194;6.856;2023-07-02T04:53:19;37.33;;;15.00;;
19183;SDS011;9724;51.194;6.856;2023-07-02T04:55:45;38.30;;;15.97;;
19183;SDS011;9724;51.194;6.856;2023-07-02T04:58:11;41.03;;;15.57;;
19183;SDS011;9724;51.194;6.856;2023-07-02T05:00:38;37.57;;;15.90;;
19183;SDS011;9724;51.194;6.856;2023-07-02T05:03:05;30.37;;;15.57;;
19183;SDS011;9724;51.194;6.856;2023-07-02T05:05:31;39.13;;;16.03;;
19183;SDS011;9724;51.194;6.856;2023-07-02T05:07:58;36.87;;;15.30;;
19183;SDS011;9724;51.194;6.856;2023-07-02T05:10:24;40.77;;;15.53;;
19183;SDS011;9724;51.194;6.856;2023-07-02T05:12:50;34.27;;;16.13;;
19183;SDS011;9724;51.194;6.856;2023-07-02T05:15:17;39.97;;;16.20;;
19183;SDS011;9724;51.194;6.856;2023-07-02T05:17:43;42.60;;;16.27;;
19183;SDS011;9724;51.194;6.856;2023-07-02T05:20:11;34.20;;;15.73;;
19183;SDS011;9724;51.194;6.856;2023-07-02T05:22:37;42.00;;;15.57;;
19183;SDS011;9724;51.194;6.856;2023-07-02T05:25:04;40.93;;;16.93;;
19183;SDS011;9724;51.194;6.856;2023-07-02T05:27:30;38.90;;;15.83;;
19183;SDS011;9724;51.194;6.856;2023-07-02T05:29:57;40.20;;;16.07;;
19183;SDS011;9724;51.194;6.856;2023-07-02T05:32:23;37.13;;;16.20;;
19183;SDS011;9724;51.194;6.856;2023-07-02T05:34:49;41.03;;;16.30;;
19183;SDS011;9724;51.194;6.856;2023-07-02T05:37:16;46.60;;;17.47;;
19183;SDS011;9724;51.194;6.856;2023-07-02T05:39:43;39.87;;;15.87;;
19183;SDS011;9724;51.194;6.856;2023-07-02T05:42:09;39.50;;;16.80;;
19183;SDS011;9724;51.194;6.856;2023-07-02T05:44:35;33.13;;;16.03;;
19183;SDS011;9724;51.194;6.856;2023-07-02T05:47:02;35.80;;;16.30;;
19183;SDS011;9724;51.194;6.856;2023-07-02T05:49:29;45.43;;;17.00;;
19183;SDS011;9724;51.194;6.856;2023-07-02T05:51:55;35.17;;;16.00;;
19183;SDS011;9724;51.194;6.856;2023-07-02T05:54:22;39.10;;;17.67;;
19183;SDS011;9724;51.194;6.856;2023-07-02T05:56:48;39.90;;;15.40;;
19183;SDS011;9724;51.194;6.856;2023-07-02T05:59:14;35.47;;;15.80;;
19183;SDS011;9724;51.194;6.856;2023-07-02T06:01:43;27.43;;;12.07;;
19183;SDS011;9724;51.194;6.856;2023-07-02T06:04:11;27.57;;;13.17;;
19183;SDS011;9724;51.194;6.856;2023-07-02T06:06:37;37.23;;;16.07;;
19183;SDS011;9724;51.194;6.856;2023-07-02T06:09:04;40.37;;;15.87;;
19183;SDS011;9724;51.194;6.856;2023-07-02T06:11:31;33.27;;;15.30;;
19183;SDS011;9724;51.194;6.856;2023-07-02T06:13:57;35.27;;;16.30;;
19183;SDS011;9724;51.194;6.856;2023-07-02T06:16:23;38.30;;;15.10;;
19183;SDS011;9724;51.194;6.856;2023-07-02T06:18:50;35.20;;;15.50;;
19183;SDS011;9724;51.194;6.856;2023-07-02T06:21:16;37.47;;;15.47;;
19183;SDS011;9724;51.194;6.856;2023-07-02T06:23:43;38.07;;;15.20;;
19183;SDS011;9724;51.194;6.856;2023-07-02T06:26:09;37.10;;;15.60;;
19183;SDS011;9724;51.194;6.856;2023-07-02T06:28:36;38.47;;;15.60;;
19183;SDS011;9724;51.194;6.856;2023-07-02T06:31:04;33.60;;;14.97;;
19183;SDS011;9724;51.194;6.856;2023-07-02T06:33:30;32.30;;;14.67;;
19183;SDS011;9724;51.194;6.856;2023-07-02T06:35:56;36.77;;;15.63;;
19183;SDS011;9724;51.194;6.856;2023-07-02T06:38:23;29.93;;;14.50;;
19183;SDS011;9724;51.194;6.856;2023-07-02T06:40:49;34.50;;;15.77;;
19183;SDS011;9724;51.194;6.856;2023-07-02T06:43:16;33.77;;;14.77;;
19183;SDS011;9724;51.194;6.856;2023-07-02T06:45:43;37.47;;;14.90;;
19183;SDS011;9724;51.194;6.856;2023-07-02T06:48:09;32.93;;;14.17;;
19183;SDS011;9724;51.194;6.856;2023-07-02T06:50:35;41.40;;;15.40;;
19183;SDS011;9724;51.194;6.856;2023-07-02T06:53:01;37.43;;;15.10;;
19183;SDS011;9724;51.194;6.856;2023-07-02T06:55:28;36.13;;;15.23;;
19183;SDS011;9724;51.194;6.856;2023-07-02T06:57:54;36.33;;;16.20;;
19183;SDS011;9724;51.194;6.856;2023-07-02T07:00:20;36.57;;;15.10;;
19183;SDS011;9724;51.194;6.856;2023-07-02T07:02:47;32.90;;;14.60;;
19183;SDS011;9724;51.194;6.856;2023-07-02T07:05:13;35.80;;;15.27;;
19183;SDS011;9724;51.194;6.856;2023-07-02T07:07:40;34.80;;;15.40;;
19183;SDS011;9724;51.194;6.856;2023-07-02T07:10:07;29.47;;;14.53;;
19183;SDS011;9724;51.194;6.856;2023-07-02T07:12:34;29.30;;;13.70;;
19183;SDS011;9724;51.194;6.856;2023-07-02T07:15:00;32.10;;;13.93;;
19183;SDS011;9724;51.194;6.856;2023-07-02T07:17:26;37.27;;;14.40;;
19183;SDS011;9724;51.194;6.856;2023-07-02T07:19:53;32.87;;;13.13;;
19183;SDS011;9724;51.194;6.856;2023-07-02T07:22:20;28.27;;;12.97;;
19183;SDS011;9724;51.194;6.856;2023-07-02T07:24:46;29.83;;;13.00;;
19183;SDS011;9724;51.194;6.856;2023-07-02T07:27:12;31.53;;;12.87;;
19183;SDS011;9724;51.194;6.856;2023-07-02T07:29:38;33.40;;;13.60;;
19183;SDS011;9724;51.194;6.856;2023-07-02T07:32:05;32.17;;;13.17;;
19183;SDS011;9724;51.194;6.856;2023-07-02T07:34:32;29.07;;;12.97;;
19183;SDS011;9724;51.194;6.856;2023-07-02T07:36:59;33.10;;;13.67;;
19183;SDS011;9724;51.194;6.856;2023-07-02T07:39:25;31.03;;;12.67;;
19183;SDS011;9724;51.194;6.856;2023-07-02T07:41:52;29.47;;;13.00;;
19183;SDS011;9724;51.194;6.856;2023-07-02T07:44:18;34.93;;;13.30;;
19183;SDS011;9724;51.194;6.856;2023-07-02T07:46:45;31.43;;;12.90;;
19183;SDS011;9724;51.194;6.856;2023-07-02T07:49:12;26.60;;;12.03;;
19183;SDS011;9724;51.194;6.856;2023-07-02T07:51:38;35.27;;;12.70;;
19183;SDS011;9724;51.194;6.856;2023-07-02T07:54:05;30.40;;;11.47;;
19183;SDS011;9724;51.194;6.856;2023-07-02T07:56:32;33.70;;;13.00;;
19183;SDS011;9724;51.194;6.856;2023-07-02T07:58:58;27.83;;;12.07;;
19183;SDS011;9724;51.194;6.856;2023-07-02T08:01:25;29.87;;;11.43;;
19183;SDS011;9724;51.194;6.856;2023-07-02T08:03:52;32.60;;;11.30;;
19183;SDS011;9724;51.194;6.856;2023-07-02T08:06:18;34.43;;;13.37;;
19183;SDS011;9724;51.194;6.856;2023-07-02T08:08:44;32.20;;;12.50;;
19183;SDS011;9724;51.194;6.856;2023-07-02T08:11:11;32.37;;;13.13;;
19183;SDS011;9724;51.194;6.856;2023-07-02T08:13:37;36.33;;;13.70;;
19183;SDS011;9724;51.194;6.856;2023-07-02T08:16:04;30.70;;;13.50;;
19183;SDS011;9724;51.194;6.856;2023-07-02T08:18:31;33.60;;;13.87;;
19183;SDS011;9724;51.194;6.856;2023-07-02T08:20:57;29.37;;;12.93;;
19183;SDS011;9724;51.194;6.856;2023-07-02T08:23:23;29.37;;;13.23;;
19183;SDS011;9724;51.194;6.856;2023-07-02T08:25:49;31.73;;;13.80;;
19183;SDS011;9724;51.194;6.856;2023-07-02T08:28:16;26.50;;;13.73;;
19183;SDS011;9724;51.194;6.856;2023-07-02T08:30:43;32.80;;;13.30;;
19183;SDS011;9724;51.194;6.856;2023-07-02T08:33:09;24.17;;;11.63;;
19183;SDS011;9724;51.194;6.856;2023-07-02T08:35:35;37.43;;;13.27;;
19183;SDS011;9724;51.194;6.856;2023-07-02T08:38:01;31.70;;;13.13;;
19183;SDS011;9724;51.194;6.856;2023-07-02T08:40:28;30.93;;;13.53;;
19183;SDS011;9724;51.194;6.856;2023-07-02T08:42:54;30.90;;;13.47;;
19183;SDS011;9724;51.194;6.856;2023-07-02T08:45:22;32.23;;;13.30;;
19183;SDS011;9724;51.194;6.856;2023-07-02T08:47:49;29.70;;;13.60;;
19183;SDS011;9724;51.194;6.856;2023-07-02T08:50:16;32.57;;;14.30;;
19183;SDS011;9724;51.194;6.856;2023-07-02T08:52:42;29.77;;;12.77;;
19183;SDS011;9724;51.194;6.856;2023-07-02T08:55:10;31.93;;;13.60;;
19183;SDS011;9724;51.194;6.856;2023-07-02T08:57:36;31.17;;;12.60;;
19183;SDS011;9724;51.194;6.856;2023-07-02T09:00:07;32.27;;;13.87;;
19183;SDS011;9724;51.194;6.856;2023-07-02T09:02:35;33.20;;;14.27;;
19183;SDS011;9724;51.194;6.856;2023-07-02T09:05:03;28.90;;;13.80;;
19183;SDS011;9724;51.194;6.856;2023-07-02T09:07:30;33.70;;;14.37;;
19183;SDS011;9724;51.194;6.856;2023-07-02T09:09:56;29.80;;;13.57;;
19183;SDS011;9724;51.194;6.856;2023-07-02T09:12:23;34.97;;;14.27;;
19183;SDS011;9724;51.194;6.856;2023-07-02T09:14:54;31.87;;;13.23;;
19183;SDS011;9724;51.194;6.856;2023-07-02T09:17:26;33.97;;;13.83;;
19183;SDS011;9724;51.194;6.856;2023-07-02T09:19:54;31.47;;;13.00;;
19183;SDS011;9724;51.194;6.856;2023-07-02T09:22:20;35.87;;;14.70;;
19183;SDS011;9724;51.194;6.856;2023-07-02T09:24:51;32.67;;;13.93;;
19183;SDS011;9724;51.194;6.856;2023-07-02T09:27:18;35.30;;;13.73;;
19183;SDS011;9724;51.194;6.856;2023-07-02T09:29:49;30.70;;;13.40;;
19183;SDS011;9724;51.194;6.856;2023-07-02T09:32:23;32.17;;;14.20;;
19183;SDS011;9724;51.194;6.856;2023-07-02T09:34:51;33.70;;;13.63;;
19183;SDS011;9724;51.194;6.856;2023-07-02T09:37:20;30.87;;;14.17;;
19183;SDS011;9724;51.194;6.856;2023-07-02T09:39:48;32.93;;;14.43;;
19183;SDS011;9724;51.194;6.856;2023-07-02T09:42:16;32.47;;;12.87;;
19183;SDS011;9724;51.194;6.856;2023-07-02T09:44:45;32.73;;;13.10;;
19183;SDS011;9724;51.194;6.856;2023-07-02T09:47:12;28.77;;;14.20;;
19183;SDS011;9724;51.194;6.856;2023-07-02T09:49:40;37.30;;;14.07;;
19183;SDS011;9724;51.194;6.856;2023-07-02T09:52:08;33.97;;;14.33;;
19183;SDS011;9724;51.194;6.856;2023-07-02T09:54:37;35.47;;;14.70;;
19183;SDS011;9724;51.194;6.856;2023-07-02T09:57:05;30.77;;;14.57;;
19183;SDS011;9724;51.194;6.856;2023-07-02T09:59:32;37.07;;;14.47;;
19183;SDS011;9724;51.194;6.856;2023-07-02T10:01:59;33.83;;;14.40;;
19183;SDS011;9724;51.194;6.856;2023-07-02T10:04:25;33.53;;;14.40;;
19183;SDS011;9724;51.194;6.856;2023-07-02T10:06:53;45.13;;;15.83;;
19183;SDS011;9724;51.194;6.856;2023-07-02T10:09:21;38.50;;;15.17;;
19183;SDS011;9724;51.194;6.856;2023-07-02T10:11:49;41.50;;;15.20;;
19183;SDS011;9724;51.194;6.856;2023-07-02T10:14:15;35.47;;;14.53;;
19183;SDS011;9724;51.194;6.856;2023-07-02T10:16:48;37.30;;;14.53;;
19183;SDS011;9724;51.194;6.856;2023-07-02T10:19:17;35.63;;;14.33;;
19183;SDS011;9724;51.194;6.856;2023-07-02T10:21:44;35.57;;;14.40;;
19183;SDS011;9724;51.194;6.856;2023-07-02T10:24:12;35.50;;;14.17;;
19183;SDS011;9724;51.194;6.856;2023-07-02T10:26:38;35.27;;;14.03;;
19183;SDS011;9724;51.194;6.856;2023-07-02T10:29:06;31.33;;;14.37;;
19183;SDS011;9724;51.194;6.856;2023-07-02T10:31:32;33.87;;;14.13;;
19183;SDS011;9724;51.194;6.856;2023-07-02T10:33:59;34.17;;;14.77;;
19183;SDS011;9724;51.194;6.856;2023-07-02T10:36:26;29.30;;;14.17;;
19183;SDS011;9724;51.194;6.856;2023-07-02T10:38:52;30.13;;;12.53;;
19183;SDS011;9724;51.194;6.856;2023-07-02T10:41:25;33.63;;;12.13;;
19183;SDS011;9724;51.194;6.856;2023-07-02T10:43:52;25.43;;;10.23;;
19183;SDS011;9724;51.194;6.856;2023-07-02T10:46:20;30.37;;;10.63;;
19183;SDS011;9724;51.194;6.856;2023-07-02T10:48:53;33.20;;;11.07;;
19183;SDS011;9724;51.194;6.856;2023-07-02T10:51:19;26.83;;;10.20;;
19183;SDS011;9724;51.194;6.856;2023-07-02T10:53:55;19.67;;;9.63;;
19183;SDS011;9724;51.194;6.856;2023-07-02T10:56:22;23.33;;;9.40;;
19183;SDS011;9724;51.194;6.856;2023-07-02T10:58:48;24.30;;;9.17;;
19183;SDS011;9724;51.194;6.856;2023-07-02T11:01:22;22.03;;;10.40;;
19183;SDS011;9724;51.194;6.856;2023-07-02T11:03:55;27.30;;;11.03;;
19183;SDS011;9724;51.194;6.856;2023-07-02T11:06:22;22.57;;;9.87;;
19183;SDS011;9724;51.194;6.856;2023-07-02T11:08:48;26.70;;;10.17;;
19183;SDS011;9724;51.194;6.856;2023-07-02T11:11:14;21.17;;;9.80;;
19183;SDS011;9724;51.194;6.856;2023-07-02T11:13:44;22.60;;;10.20;;
19183;SDS011;9724;51.194;6.856;2023-07-02T11:16:16;23.13;;;9.70;;
19183;SDS011;9724;51.194;6.856;2023-07-02T11:18:50;24.40;;;10.07;;
19183;SDS011;9724;51.194;6.856;2023-07-02T11:21:17;21.70;;;9.93;;
19183;SDS011;9724;51.194;6.856;2023-07-02T11:23:43;19.77;;;9.47;;
19183;SDS011;9724;51.194;6.856;2023-07-02T11:26:10;23.50;;;9.77;;
19183;SDS011;9724;51.194;6.856;2023-07-02T11:28:36;20.60;;;9.30;;
19183;SDS011;9724;51.194;6.856;2023-07-02T11:31:13;21.83;;;9.17;;
19183;SDS011;9724;51.194;6.856;2023-07-02T11:33:40;19.90;;;9.30;;
19183;SDS011;9724;51.194;6.856;2023-07-02T11:36:08;28.93;;;9.43;;
19183;SDS011;9724;51.194;6.856;2023-07-02T11:38:45;21.43;;;9.07;;
19183;SDS011;9724;51.194;6.856;2023-07-02T11:41:11;17.67;;;8.37;;
19183;SDS011;9724;51.194;6.856;2023-07-02T11:43:38;17.13;;;8.60;;
19183;SDS011;9724;51.194;6.856;2023-07-02T11:46:04;20.03;;;9.03;;
19183;SDS011;9724;51.194;6.856;2023-07-02T11:48:33;23.00;;;8.67;;
19183;SDS011;9724;51.194;6.856;2023-07-02T11:51:00;23.73;;;8.80;;
19183;SDS011;9724;51.194;6.856;2023-07-02T11:53:26;20.70;;;9.60;;
19183;SDS011;9724;51.194;6.856;2023-07-02T11:55:53;22.47;;;9.73;;
19183;SDS011;9724;51.194;6.856;2023-07-02T11:58:19;24.70;;;9.37;;
19183;SDS011;9724;51.194;6.856;2023-07-02T12:00:45;23.43;;;8.83;;
19183;SDS011;9724;51.194;6.856;2023-07-02T12:03:11;19.40;;;9.13;;
19183;SDS011;9724;51.194;6.856;2023-07-02T12:05:38;23.83;;;9.50;;
19183;SDS011;9724;51.194;6.856;2023-07-02T12:08:04;21.53;;;9.47;;
19183;SDS011;9724;51.194;6.856;2023-07-02T12:10:31;20.03;;;8.70;;
19183;SDS011;9724;51.194;6.856;2023-07-02T12:12:57;21.67;;;8.93;;
19183;SDS011;9724;51.194;6.856;2023-07-02T12:15:24;24.23;;;9.30;;
19183;SDS011;9724;51.194;6.856;2023-07-02T12:17:50;21.37;;;8.53;;
19183;SDS011;9724;51.194;6.856;2023-07-02T12:20:16;19.67;;;8.67;;
19183;SDS011;9724;51.194;6.856;2023-07-02T12:22:43;20.43;;;8.93;;
19183;SDS011;9724;51.194;6.856;2023-07-02T12:25:10;22.23;;;8.47;;
19183;SDS011;9724;51.194;6.856;2023-07-02T12:27:37;17.83;;;8.00;;
19183;SDS011;9724;51.194;6.856;2023-07-02T12:30:04;21.07;;;8.40;;
19183;SDS011;9724;51.194;6.856;2023-07-02T12:32:31;16.73;;;8.27;;
19183;SDS011;9724;51.194;6.856;2023-07-02T12:34:57;19.30;;;7.70;;
19183;SDS011;9724;51.194;6.856;2023-07-02T12:37:24;19.40;;;8.00;;
19183;SDS011;9724;51.194;6.856;2023-07-02T12:39:50;15.90;;;6.67;;
19183;SDS011;9724;51.194;6.856;2023-07-02T12:42:17;19.97;;;7.23;;
19183;SDS011;9724;51.194;6.856;2023-07-02T12:44:44;18.33;;;7.97;;
19183;SDS011;9724;51.194;6.856;2023-07-02T12:47:10;16.03;;;7.33;;
19183;SDS011;9724;51.194;6.856;2023-07-02T12:49:36;15.73;;;6.83;;
19183;SDS011;9724;51.194;6.856;2023-07-02T12:52:03;20.67;;;7.37;;
19183;SDS011;9724;51.194;6.856;2023-07-02T12:54:29;17.47;;;7.03;;
19183;SDS011;9724;51.194;6.856;2023-07-02T12:56:56;17.10;;;7.30;;
19183;SDS011;9724;51.194;6.856;2023-07-02T12:59:22;17.87;;;7.20;;
19183;SDS011;9724;51.194;6.856;2023-07-02T13:01:49;18.27;;;7.27;;
19183;SDS011;9724;51.194;6.856;2023-07-02T13:04:15;18.70;;;7.47;;
19183;SDS011;9724;51.194;6.856;2023-07-02T13:06:42;16.17;;;7.27;;
19183;SDS011;9724;51.194;6.856;2023-07-02T13:09:10;16.87;;;7.23;;
19183;SDS011;9724;51.194;6.856;2023-07-02T13:11:36;20.07;;;7.33;;
19183;SDS011;9724;51.194;6.856;2023-07-02T13:14:03;15.17;;;7.30;;
19183;SDS011;9724;51.194;6.856;2023-07-02T13:16:30;16.57;;;7.23;;
19183;SDS011;9724;51.194;6.856;2023-07-02T13:18:57;15.37;;;7.17;;
19183;SDS011;9724;51.194;6.856;2023-07-02T13:21:23;17.83;;;6.90;;
19183;SDS011;9724;51.194;6.856;2023-07-02T13:23:49;19.40;;;7.30;;
19183;SDS011;9724;51.194;6.856;2023-07-02T13:26:16;15.83;;;7.50;;
19183;SDS011;9724;51.194;6.856;2023-07-02T13:28:42;17.30;;;7.90;;
19183;SDS011;9724;51.194;6.856;2023-07-02T13:31:08;15.87;;;7.57;;
19183;SDS011;9724;51.194;6.856;2023-07-02T13:33:36;18.77;;;7.90;;
19183;SDS011;9724;51.194;6.856;2023-07-02T13:36:04;17.47;;;7.43;;
19183;SDS011;9724;51.194;6.856;2023-07-02T13:38:31;15.83;;;7.17;;
19183;SDS011;9724;51.194;6.856;2023-07-02T13:40:57;14.43;;;7.23;;
19183;SDS011;9724;51.194;6.856;2023-07-02T13:43:24;17.57;;;7.53;;
19183;SDS011;9724;51.194;6.856;2023-07-02T13:45:50;14.17;;;7.20;;
19183;SDS011;9724;51.194;6.856;2023-07-02T13:48:17;16.40;;;8.63;;
19183;SDS011;9724;51.194;6.856;2023-07-02T13:50:43;20.30;;;8.40;;
19183;SDS011;9724;51.194;6.856;2023-07-02T13:53:10;18.83;;;8.30;;
19183;SDS011;9724;51.194;6.856;2023-07-02T13:55:36;27.30;;;9.03;;
19183;SDS011;9724;51.194;6.856;2023-07-02T13:58:03;22.97;;;8.67;;
19183;SDS011;9724;51.194;6.856;2023-07-02T14:00:30;19.53;;;8.30;;
19183;SDS011;9724;51.194;6.856;2023-07-02T14:02:56;24.00;;;8.87;;
19183;SDS011;9724;51.194;6.856;2023-07-02T14:05:23;20.23;;;8.43;;
19183;SDS011;9724;51.194;6.856;2023-07-02T14:07:49;21.83;;;9.53;;
19183;SDS011;9724;51.194;6.856;2023-07-02T14:10:16;21.37;;;8.60;;
19183;SDS011;9724;51.194;6.856;2023-07-02T14:12:42;25.13;;;9.27;;
19183;SDS011;9724;51.194;6.856;2023-07-02T14:15:09;20.93;;;8.57;;
19183;SDS011;9724;51.194;6.856;2023-07-02T14:17:36;23.00;;;9.07;;
19183;SDS011;9724;51.194;6.856;2023-07-02T14:20:03;22.43;;;9.03;;
19183;SDS011;9724;51.194;6.856;2023-07-02T14:22:31;19.73;;;8.47;;
19183;SDS011;9724;51.194;6.856;2023-07-02T14:24:57;20.53;;;8.50;;
19183;SDS011;9724;51.194;6.856;2023-07-02T14:27:23;19.80;;;8.63;;
19183;SDS011;9724;51.194;6.856;2023-07-02T14:29:50;18.10;;;8.43;;
19183;SDS011;9724;51.194;6.856;2023-07-02T14:32:16;20.77;;;8.73;;
19183;SDS011;9724;51.194;6.856;2023-07-02T14:34:43;18.67;;;8.47;;
19183;SDS011;9724;51.194;6.856;2023-07-02T14:37:10;22.10;;;9.17;;
19183;SDS011;9724;51.194;6.856;2023-07-02T14:39:36;21.60;;;9.57;;